createdAt,value
2022-11-24T00:00:14.050Z,8.86
2022-11-24T00:01:14.061Z,8.99
2022-11-24T00:02:14.197Z,9.02
2022-11-24T00:03:14.219Z,8.96
2022-11-24T00:04:14.172Z,8.95
2022-11-24T00:05:14.172Z,8.93
2022-11-24T00:06:14.190Z,8.97
2022-11-24T00:07:14.249Z,8.97
2022-11-24T00:08:14.232Z,8.89
2022-11-24T00:09:14.233Z,8.95
2022-11-24T00:10:14.232Z,8.99
2022-11-24T00:11:14.238Z,9.00
2022-11-24T00:12:14.253Z,8.93
2022-11-24T00:13:14.253Z,8.99
2022-11-24T00:14:14.264Z,9.03
2022-11-24T00:15:14.289Z,8.97
2022-11-24T00:16:14.393Z,9.03
2022-11-24T00:17:14.316Z,9.00
2022-11-24T00:18:14.325Z,8.95
2022-11-24T00:19:19.404Z,9.03
2022-11-24T00:20:14.325Z,9.12
2022-11-24T00:21:14.326Z,9.11
2022-11-24T00:22:14.325Z,9.11
2022-11-24T00:23:14.327Z,9.03
2022-11-24T00:24:14.334Z,9.15
2022-11-24T00:25:14.326Z,9.11
2022-11-24T00:26:14.326Z,9.02
2022-11-24T00:27:14.326Z,9.16
2022-11-24T00:28:14.327Z,9.15
2022-11-24T00:29:14.316Z,9.21
2022-11-24T00:30:14.327Z,9.30
2022-11-24T00:31:17.252Z,9.22
2022-11-24T00:32:14.368Z,9.26
2022-11-24T00:33:14.428Z,9.22
2022-11-24T00:34:14.418Z,9.22
2022-11-24T00:35:14.427Z,9.15
2022-11-24T00:36:14.449Z,9.26
2022-11-24T00:37:14.467Z,9.34
2022-11-24T00:38:14.451Z,9.42
2022-11-24T00:39:14.520Z,9.42
2022-11-24T00:40:14.552Z,9.48
2022-11-24T00:41:14.562Z,9.62
2022-11-24T00:42:14.572Z,9.54
2022-11-24T00:43:14.569Z,9.56
2022-11-24T00:44:14.562Z,9.48
2022-11-24T00:45:14.621Z,9.37
2022-11-24T00:46:14.833Z,9.37
2022-11-24T00:47:14.832Z,9.42
2022-11-24T00:48:14.761Z,9.30
2022-11-24T00:49:14.781Z,9.29
2022-11-24T00:50:14.793Z,9.36
2022-11-24T00:51:14.790Z,9.39
2022-11-24T00:52:14.785Z,9.40
2022-11-24T00:53:14.830Z,9.42
2022-11-24T00:54:14.831Z,9.44
2022-11-24T00:55:14.822Z,9.45
2022-11-24T00:56:14.824Z,9.40
2022-11-24T00:57:14.834Z,9.39
2022-11-24T00:58:14.834Z,9.30
2022-11-24T00:59:14.832Z,9.29
2022-11-24T01:00:14.853Z,9.26
2022-11-24T01:01:14.915Z,9.26
2022-11-24T01:02:14.922Z,9.27
2022-11-24T01:03:14.885Z,9.31
2022-11-24T01:04:14.905Z,9.33
2022-11-24T01:05:14.896Z,9.27
2022-11-24T01:06:14.895Z,9.22
2022-11-24T01:07:14.933Z,9.24
2022-11-24T01:08:14.931Z,9.21
2022-11-24T01:09:14.948Z,9.24
2022-11-24T01:10:14.926Z,9.29
2022-11-24T01:11:14.931Z,9.34
2022-11-24T01:12:14.937Z,9.27
2022-11-24T01:13:14.927Z,9.27
2022-11-24T01:14:14.921Z,9.29
2022-11-24T01:15:14.937Z,9.26
2022-11-24T01:16:14.983Z,9.26
2022-11-24T01:17:14.998Z,9.30
2022-11-24T01:18:15.008Z,9.22
2022-11-24T01:19:15.238Z,9.27
2022-11-24T01:20:14.999Z,9.30
2022-11-24T01:21:14.989Z,9.33
2022-11-24T01:22:14.989Z,9.18
2022-11-24T01:23:14.995Z,9.18
2022-11-24T01:24:14.990Z,9.27
2022-11-24T01:25:14.981Z,9.29
2022-11-24T01:26:15.001Z,9.22
2022-11-24T01:27:14.990Z,9.21
2022-11-24T01:28:14.990Z,9.16
2022-11-24T01:29:14.982Z,9.09
2022-11-24T01:30:14.991Z,8.97
2022-11-24T01:31:15.027Z,9.03
2022-11-24T01:32:15.010Z,8.97
2022-11-24T01:33:15.002Z,9.02
2022-11-24T01:34:15.012Z,9.11
2022-11-24T01:35:15.004Z,9.03
2022-11-24T01:36:14.997Z,9.11
2022-11-24T01:37:15.024Z,9.11
2022-11-24T01:38:15.022Z,9.13
2022-11-24T01:39:15.035Z,8.99
2022-11-24T01:40:15.033Z,8.99
2022-11-24T01:41:15.033Z,9.03
2022-11-24T01:42:15.053Z,9.09
2022-11-24T01:43:15.044Z,9.13
2022-11-24T01:44:15.055Z,9.02
2022-11-24T01:45:15.054Z,9.02
2022-11-24T01:46:15.093Z,9.03
2022-11-24T01:47:15.104Z,9.02
2022-11-24T01:48:15.107Z,8.96
2022-11-24T01:49:15.123Z,8.90
2022-11-24T01:50:15.110Z,8.95
2022-11-24T01:51:15.114Z,8.96
2022-11-24T01:52:15.117Z,8.86
2022-11-24T01:53:15.117Z,8.86
2022-11-24T01:54:15.129Z,8.82
2022-11-24T01:55:15.118Z,8.86
2022-11-24T01:56:15.122Z,8.81
2022-11-24T01:57:15.127Z,8.78
2022-11-24T01:58:15.117Z,8.69
2022-11-24T01:59:15.138Z,8.69
2022-11-24T02:00:15.149Z,8.68
2022-11-24T02:01:15.166Z,8.74
2022-11-24T02:02:15.217Z,8.74
2022-11-24T02:03:15.200Z,8.60
2022-11-24T02:04:15.217Z,8.59
2022-11-24T02:05:15.216Z,8.57
2022-11-24T02:06:15.221Z,8.54
2022-11-24T02:07:15.291Z,8.46
2022-11-24T02:08:15.260Z,8.50
2022-11-24T02:09:15.278Z,8.46
2022-11-24T02:10:15.297Z,8.46
2022-11-24T02:11:15.290Z,8.39
2022-11-24T02:12:15.300Z,8.41
2022-11-24T02:13:15.310Z,8.39
2022-11-24T02:14:15.310Z,8.42
2022-11-24T02:15:15.330Z,8.38
2022-11-24T02:16:15.385Z,8.41
2022-11-24T02:17:15.344Z,8.44
2022-11-24T02:18:15.351Z,8.42
2022-11-24T02:19:15.360Z,8.39
2022-11-24T02:20:15.363Z,8.34
2022-11-24T02:21:15.376Z,8.39
2022-11-24T02:22:15.381Z,8.42
2022-11-24T02:23:15.421Z,8.42
2022-11-24T02:24:15.422Z,8.41
2022-11-24T02:25:15.430Z,8.32
2022-11-24T02:26:15.429Z,8.32
2022-11-24T02:27:15.422Z,8.35
2022-11-24T02:28:15.440Z,8.32
2022-11-24T02:29:15.445Z,8.28
2022-11-24T02:30:15.435Z,8.26
2022-11-24T02:31:15.456Z,8.18
2022-11-24T02:32:15.466Z,8.20
2022-11-24T02:33:15.455Z,8.26
2022-11-24T02:34:15.452Z,8.20
2022-11-24T02:35:15.455Z,8.24
2022-11-24T02:36:15.436Z,8.21
2022-11-24T02:37:15.445Z,8.23
2022-11-24T02:38:15.436Z,8.20
2022-11-24T02:39:15.437Z,8.24
2022-11-24T02:40:15.432Z,8.27
2022-11-24T02:41:15.417Z,8.31
2022-11-24T02:42:15.417Z,8.32
2022-11-24T02:43:15.424Z,8.27
2022-11-24T02:44:15.417Z,8.32
2022-11-24T02:45:15.436Z,8.24
2022-11-24T02:46:15.442Z,8.27
2022-11-24T02:47:15.445Z,8.26
2022-11-24T02:48:15.457Z,8.31
2022-11-24T02:49:15.448Z,8.27
2022-11-24T02:50:15.448Z,8.23
2022-11-24T02:51:15.438Z,8.32
2022-11-24T02:52:15.441Z,8.35
2022-11-24T02:53:15.443Z,8.27
2022-11-24T02:54:15.479Z,8.20
2022-11-24T02:55:15.499Z,8.21
2022-11-24T02:56:15.490Z,8.28
2022-11-24T02:57:15.490Z,8.35
2022-11-24T02:58:15.486Z,8.27
2022-11-24T02:59:15.482Z,8.34
2022-11-24T03:00:15.481Z,8.38
2022-11-24T03:01:15.552Z,8.32
2022-11-24T03:02:15.540Z,8.31
2022-11-24T03:03:15.555Z,8.31
2022-11-24T03:04:15.582Z,8.26
2022-11-24T03:05:15.574Z,8.23
2022-11-24T03:06:15.571Z,8.18
2022-11-24T03:07:15.650Z,8.17
2022-11-24T03:08:15.614Z,8.21
2022-11-24T03:09:15.626Z,8.23
2022-11-24T03:10:15.615Z,8.23
2022-11-24T03:11:15.632Z,8.23
2022-11-24T03:12:15.633Z,8.24
2022-11-24T03:13:15.623Z,8.20
2022-11-24T03:14:15.613Z,8.20
2022-11-24T03:15:15.603Z,8.21
2022-11-24T03:16:15.640Z,8.21
2022-11-24T03:17:15.684Z,8.18
2022-11-24T03:18:15.675Z,8.18
2022-11-24T03:19:15.665Z,8.18
2022-11-24T03:20:15.665Z,8.18
2022-11-24T03:21:15.666Z,8.21
2022-11-24T03:22:15.675Z,8.17
2022-11-24T03:23:15.671Z,8.13
2022-11-24T03:24:15.676Z,8.14
2022-11-24T03:25:15.679Z,8.17
2022-11-24T03:26:15.669Z,8.17
2022-11-24T03:27:15.657Z,8.27
2022-11-24T03:28:15.656Z,8.20
2022-11-24T03:29:15.667Z,8.23
2022-11-24T03:30:15.657Z,8.24
2022-11-24T03:31:15.804Z,8.24
2022-11-24T03:32:15.709Z,8.17
2022-11-24T03:33:15.698Z,8.20
2022-11-24T03:34:15.707Z,8.24
2022-11-24T03:35:15.717Z,8.21
2022-11-24T03:36:15.708Z,8.23
2022-11-24T03:37:15.709Z,8.23
2022-11-24T03:38:15.709Z,8.21
2022-11-24T03:39:15.709Z,8.21
2022-11-24T03:40:15.809Z,8.26
2022-11-24T03:41:15.739Z,8.27
2022-11-24T03:42:15.810Z,8.32
2022-11-24T03:43:15.809Z,8.35
2022-11-24T03:44:15.931Z,8.36
2022-11-24T03:45:44.264Z,8.38
2022-11-24T03:46:15.844Z,8.49
2022-11-24T03:47:15.823Z,8.56
2022-11-24T03:48:15.824Z,8.57
2022-11-24T03:49:15.861Z,8.57
2022-11-24T03:50:15.860Z,8.54
2022-11-24T03:51:15.861Z,8.56
2022-11-24T03:52:15.882Z,8.57
2022-11-24T03:53:15.902Z,8.56
2022-11-24T03:54:15.901Z,8.54
2022-11-24T03:55:15.904Z,8.61
2022-11-24T03:56:15.914Z,8.64
2022-11-24T03:57:15.911Z,8.53
2022-11-24T03:58:15.921Z,8.56
2022-11-24T03:59:15.924Z,8.60
2022-11-24T04:00:15.923Z,8.68
2022-11-24T04:01:16.017Z,8.71
2022-11-24T04:02:16.062Z,8.63
2022-11-24T04:03:15.944Z,8.57
2022-11-24T04:04:15.958Z,8.60
2022-11-24T04:05:15.955Z,8.72
2022-11-24T04:06:15.955Z,8.75
2022-11-24T04:07:15.986Z,8.82
2022-11-24T04:08:16.017Z,8.87
2022-11-24T04:09:16.015Z,8.86
2022-11-24T04:10:16.020Z,8.87
2022-11-24T04:11:16.016Z,8.84
2022-11-24T04:12:16.017Z,8.81
2022-11-24T04:13:16.050Z,8.78
2022-11-24T04:14:16.055Z,8.81
2022-11-24T04:15:16.066Z,8.79
2022-11-24T04:16:16.138Z,8.78
2022-11-24T04:17:16.067Z,8.79
2022-11-24T04:18:16.090Z,8.86
2022-11-24T04:19:16.095Z,8.86
2022-11-24T04:20:16.100Z,8.81
2022-11-24T04:21:16.103Z,8.89
2022-11-24T04:22:16.108Z,8.90
2022-11-24T04:23:16.109Z,8.90
2022-11-24T04:24:16.120Z,8.89
2022-11-24T04:25:16.140Z,8.93
2022-11-24T04:26:16.140Z,8.93
2022-11-24T04:27:16.139Z,8.96
2022-11-24T04:28:16.139Z,8.92
2022-11-24T04:29:16.150Z,8.95
2022-11-24T04:30:16.159Z,8.96
2022-11-24T04:31:16.196Z,8.86
2022-11-24T04:32:16.207Z,8.93
2022-11-24T04:33:16.191Z,8.96
2022-11-24T04:34:16.205Z,8.90
2022-11-24T04:35:16.231Z,8.90
2022-11-24T04:36:16.242Z,8.95
2022-11-24T04:37:16.236Z,8.93
2022-11-24T04:39:19.836Z,8.87
2022-11-24T04:39:23.849Z,8.84
2022-11-24T04:40:16.222Z,8.78
2022-11-24T04:41:16.253Z,8.74
2022-11-24T04:42:16.252Z,8.74
2022-11-24T04:43:16.244Z,8.77
2022-11-24T04:44:16.243Z,8.77
2022-11-24T04:45:16.263Z,8.84
2022-11-24T04:46:16.326Z,8.89
2022-11-24T04:47:16.326Z,8.81
2022-11-24T04:48:16.327Z,8.86
2022-11-24T04:49:16.325Z,8.82
2022-11-24T04:50:16.344Z,8.84
2022-11-24T04:51:16.344Z,8.87
2022-11-24T04:52:16.346Z,8.87
2022-11-24T04:53:16.347Z,8.86
2022-11-24T04:54:16.347Z,8.87
2022-11-24T04:55:16.346Z,8.90
2022-11-24T04:56:16.364Z,8.90
2022-11-24T04:57:16.364Z,8.86
2022-11-24T04:58:16.366Z,8.87
2022-11-24T04:59:16.376Z,8.87
2022-11-24T05:00:16.388Z,8.87
2022-11-24T05:01:16.507Z,8.89
2022-11-24T05:02:16.449Z,8.90
2022-11-24T05:03:16.473Z,8.89
2022-11-24T05:04:16.512Z,8.90
2022-11-24T05:05:16.519Z,8.90
2022-11-24T05:06:16.527Z,8.89
2022-11-24T05:07:18.804Z,8.86
2022-11-24T05:08:16.567Z,8.82
2022-11-24T05:09:16.570Z,8.77
2022-11-24T05:10:16.588Z,8.68
2022-11-24T05:11:16.588Z,8.69
2022-11-24T05:12:16.591Z,8.74
2022-11-24T05:13:16.610Z,8.69
2022-11-24T05:14:16.610Z,8.77
2022-11-24T05:15:16.629Z,8.81
2022-11-24T05:16:16.680Z,8.79
2022-11-24T05:17:16.640Z,8.82
2022-11-24T05:18:16.661Z,8.89
2022-11-24T05:19:16.723Z,8.89
2022-11-24T05:20:16.721Z,8.86
2022-11-24T05:21:16.732Z,8.82
2022-11-24T05:22:16.733Z,8.81
2022-11-24T05:23:16.751Z,8.75
2022-11-24T05:24:16.762Z,8.75
2022-11-24T05:25:16.763Z,8.81
2022-11-24T05:26:16.776Z,8.87
2022-11-24T05:27:16.794Z,8.87
2022-11-24T05:28:16.805Z,8.86
2022-11-24T05:29:16.794Z,8.89
2022-11-24T05:30:16.793Z,9.02
2022-11-24T05:31:16.870Z,9.11
2022-11-24T05:32:16.806Z,9.11
2022-11-24T05:33:16.784Z,9.12
2022-11-24T05:34:16.855Z,9.12
2022-11-24T05:35:16.875Z,9.03
2022-11-24T05:36:16.864Z,9.09
2022-11-24T05:37:16.859Z,9.13
2022-11-24T05:38:16.846Z,9.12
2022-11-24T05:39:16.846Z,9.18
2022-11-24T05:40:16.843Z,9.15
2022-11-24T05:41:16.868Z,9.24
2022-11-24T05:42:16.878Z,9.18
2022-11-24T05:43:16.876Z,9.11
2022-11-24T05:44:16.926Z,9.05
2022-11-24T05:45:16.907Z,9.11
2022-11-24T05:46:16.981Z,9.03
2022-11-24T05:47:16.937Z,9.02
2022-11-24T05:48:16.946Z,9.05
2022-11-24T05:49:16.926Z,9.13
2022-11-24T05:50:16.934Z,9.08
2022-11-24T05:51:16.949Z,9.05
2022-11-24T05:52:16.977Z,9.02
2022-11-24T05:53:16.968Z,9.13
2022-11-24T05:54:16.958Z,9.18
2022-11-24T05:55:16.968Z,9.15
2022-11-24T05:56:16.979Z,9.18
2022-11-24T05:57:17.031Z,9.16
2022-11-24T05:58:17.049Z,9.16
2022-11-24T05:59:17.047Z,9.21
2022-11-24T06:00:17.051Z,9.26
2022-11-24T06:01:17.078Z,9.22
2022-11-24T06:02:17.233Z,9.22
2022-11-24T06:03:17.194Z,9.24
2022-11-24T06:04:17.151Z,9.16
2022-11-24T06:05:17.155Z,9.18
2022-11-24T06:06:17.152Z,9.11
2022-11-24T06:07:17.198Z,9.24
2022-11-24T06:08:17.151Z,9.21
2022-11-24T06:09:17.150Z,9.18
2022-11-24T06:10:17.191Z,9.15
2022-11-24T06:11:17.359Z,9.13
2022-11-24T06:12:17.191Z,9.13
2022-11-24T06:13:17.288Z,9.16
2022-11-24T06:14:17.223Z,9.19
2022-11-24T06:15:17.223Z,9.21
2022-11-24T06:16:17.317Z,9.24
2022-11-24T06:17:17.275Z,9.27
2022-11-24T06:18:17.273Z,9.36
2022-11-24T06:19:17.414Z,9.34
2022-11-24T06:20:17.343Z,9.31
2022-11-24T06:21:17.344Z,9.24
2022-11-24T06:22:17.405Z,9.21
2022-11-24T06:23:17.406Z,9.31
2022-11-24T06:24:17.406Z,9.36
2022-11-24T06:25:17.404Z,9.49
2022-11-24T06:26:17.427Z,9.55
2022-11-24T06:27:17.425Z,9.54
2022-11-24T06:28:17.430Z,9.36
2022-11-24T06:29:17.417Z,9.34
2022-11-24T06:30:17.417Z,9.42
2022-11-24T06:31:17.503Z,9.37
2022-11-24T06:32:17.465Z,9.24
2022-11-24T06:33:17.469Z,9.36
2022-11-24T06:34:17.450Z,9.34
2022-11-24T06:35:17.471Z,9.44
2022-11-24T06:36:17.480Z,9.36
2022-11-24T06:37:17.488Z,9.42
2022-11-24T06:38:22.940Z,9.45
2022-11-24T06:39:17.495Z,9.45
2022-11-24T06:40:17.517Z,9.40
2022-11-24T06:41:17.529Z,9.48
2022-11-24T06:42:17.526Z,9.48
2022-11-24T06:43:17.550Z,9.48
2022-11-24T06:44:17.578Z,9.44
2022-11-24T06:45:17.609Z,9.48
2022-11-24T06:46:17.707Z,9.52
2022-11-24T06:47:17.640Z,9.63
2022-11-24T06:48:17.671Z,9.67
2022-11-24T06:49:17.681Z,9.59
2022-11-24T06:50:17.726Z,9.64
2022-11-24T06:51:17.744Z,9.62
2022-11-24T06:52:17.771Z,9.55
2022-11-24T06:53:17.782Z,9.54
2022-11-24T06:54:17.855Z,9.54
2022-11-24T06:55:17.877Z,9.55
2022-11-24T06:56:17.893Z,9.49
2022-11-24T06:57:17.913Z,9.54
2022-11-24T06:58:17.932Z,9.49
2022-11-24T06:59:17.953Z,9.64
2022-11-24T07:00:18.054Z,9.63
2022-11-24T07:01:18.051Z,9.64
2022-11-24T07:02:18.014Z,9.64
2022-11-24T07:03:18.080Z,9.66
2022-11-24T07:04:18.094Z,9.66
2022-11-24T07:05:18.144Z,9.76
2022-11-24T07:06:18.126Z,9.76
2022-11-24T07:07:18.245Z,9.69
2022-11-24T07:08:18.250Z,9.72
2022-11-24T07:09:18.226Z,9.72
2022-11-24T07:10:18.301Z,9.64
2022-11-24T07:11:18.306Z,9.70
2022-11-24T07:12:18.387Z,9.64
2022-11-24T07:13:18.356Z,9.67
2022-11-24T07:14:18.386Z,9.76
2022-11-24T07:15:18.407Z,9.69
2022-11-24T07:16:18.476Z,9.76
2022-11-24T07:17:18.489Z,9.73
2022-11-24T07:18:18.527Z,9.77
2022-11-24T07:19:24.402Z,9.74
2022-11-24T07:20:18.588Z,9.72
2022-11-24T07:21:18.642Z,9.74
2022-11-24T07:22:18.699Z,9.72
2022-11-24T07:23:18.761Z,9.69
2022-11-24T07:24:19.449Z,9.56
2022-11-24T07:25:18.810Z,9.59
2022-11-24T07:26:18.820Z,9.64
2022-11-24T07:27:18.830Z,9.69
2022-11-24T07:32:36.886Z,9.77
2022-11-24T07:33:36.935Z,9.74
2022-11-24T07:34:37.245Z,9.82
2022-11-24T07:35:37.027Z,9.69
2022-11-24T07:36:37.097Z,9.59
2022-11-24T07:37:37.136Z,9.48
2022-11-24T07:38:37.158Z,9.48
2022-11-24T07:39:37.217Z,9.44
2022-11-24T07:40:37.229Z,9.45
2022-11-24T07:41:37.238Z,9.58
2022-11-24T07:42:37.277Z,9.54
2022-11-24T07:43:37.327Z,9.54
2022-11-24T07:44:37.368Z,9.66
2022-11-24T07:45:37.425Z,9.54
2022-11-24T07:46:37.471Z,9.64
2022-11-24T07:47:37.478Z,9.63
2022-11-24T07:48:37.507Z,9.70
2022-11-24T07:49:37.560Z,9.72
2022-11-24T07:50:37.530Z,9.69
2022-11-24T07:51:37.597Z,9.70
2022-11-24T07:52:37.650Z,9.67
2022-11-24T07:53:37.661Z,9.70
2022-11-24T07:54:37.722Z,9.74
2022-11-24T07:55:37.689Z,9.72
2022-11-24T07:56:37.721Z,9.72
2022-11-24T07:57:37.744Z,9.73
2022-11-24T07:58:37.771Z,9.69
2022-11-24T07:59:37.783Z,9.72
2022-11-24T08:00:37.834Z,9.73
2022-11-24T08:01:37.971Z,9.74
2022-11-24T08:02:37.932Z,9.84
2022-11-24T08:03:37.993Z,9.92
2022-11-24T08:04:37.991Z,9.85
2022-11-24T08:05:49.149Z,9.91
2022-11-24T08:06:42.084Z,9.82
2022-11-24T08:07:38.158Z,9.94
2022-11-24T08:08:38.112Z,10.05
2022-11-24T08:09:38.093Z,10.12
2022-11-24T08:10:38.155Z,10.06
2022-11-24T08:11:38.234Z,10.07
2022-11-24T08:12:38.215Z,10.09
2022-11-24T08:13:38.295Z,10.06
2022-11-24T08:14:38.284Z,10.20
2022-11-24T08:15:38.276Z,10.24
2022-11-24T08:16:38.631Z,10.27
2022-11-24T08:17:38.356Z,10.20
2022-11-24T08:18:38.361Z,10.20
2022-11-24T08:19:38.376Z,10.17
2022-11-24T08:20:38.366Z,10.21
2022-11-24T08:21:38.366Z,10.05
2022-11-24T08:22:38.357Z,10.03
2022-11-24T08:23:38.419Z,10.09
2022-11-24T08:24:38.443Z,10.07
2022-11-24T08:25:38.438Z,10.21
2022-11-24T08:26:38.507Z,10.25
2022-11-24T08:27:38.578Z,10.38
2022-11-24T08:28:38.658Z,10.36
2022-11-24T08:29:38.687Z,10.48
2022-11-24T08:30:38.687Z,10.55
2022-11-24T08:31:38.743Z,10.51
2022-11-24T08:32:38.681Z,10.59
2022-11-24T08:33:38.739Z,10.65
2022-11-24T08:34:38.811Z,10.77
2022-11-24T08:35:38.790Z,10.80
2022-11-24T08:36:38.870Z,10.77
2022-11-24T08:37:38.882Z,10.79
2022-11-24T08:38:38.861Z,10.67
2022-11-24T08:39:38.924Z,10.65
2022-11-24T08:40:39.012Z,10.57
2022-11-24T08:41:39.692Z,10.58
2022-11-24T08:42:39.091Z,10.65
2022-11-24T08:43:39.122Z,10.69
2022-11-24T08:44:39.102Z,10.72
2022-11-24T08:45:41.664Z,10.64
2022-11-24T08:46:39.232Z,10.72
2022-11-24T08:47:39.213Z,10.68
2022-11-24T08:48:39.285Z,10.72
2022-11-24T08:49:39.277Z,10.83
2022-11-24T08:50:39.325Z,10.87
2022-11-24T08:51:39.341Z,10.97
2022-11-24T08:52:39.338Z,11.04
2022-11-24T08:53:39.335Z,11.07
2022-11-24T08:54:39.346Z,11.07
2022-11-24T08:55:39.358Z,11.10
2022-11-24T08:56:39.336Z,11.18
2022-11-24T08:57:39.336Z,11.02
2022-11-24T08:58:39.364Z,10.90
2022-11-24T08:59:39.387Z,10.72
2022-11-24T09:00:39.457Z,10.77
2022-11-24T09:01:39.507Z,10.76
2022-11-24T09:02:39.487Z,10.79
2022-11-24T09:03:42.341Z,10.90
2022-11-24T09:04:39.624Z,10.98
2022-11-24T09:05:54.964Z,10.82
2022-11-24T09:06:39.608Z,10.71
2022-11-24T09:07:39.748Z,10.77
2022-11-24T09:08:39.668Z,10.80
2022-11-24T09:09:39.729Z,10.79
2022-11-24T09:10:39.779Z,10.84
2022-11-24T09:11:39.862Z,10.89
2022-11-24T09:12:39.920Z,11.00
2022-11-24T09:13:39.981Z,11.13
2022-11-24T09:14:40.002Z,10.86
2022-11-24T09:15:40.052Z,10.86
2022-11-24T09:16:40.080Z,11.05
2022-11-24T09:17:40.023Z,11.05
2022-11-24T09:18:40.034Z,11.10
2022-11-24T09:19:40.004Z,11.04
2022-11-24T09:20:40.002Z,10.94
2022-11-24T09:21:40.032Z,10.82
2022-11-24T09:22:40.082Z,10.84
2022-11-24T09:23:40.117Z,10.83
2022-11-24T09:24:40.192Z,10.82
2022-11-24T09:25:40.190Z,10.90
2022-11-24T09:26:46.135Z,10.80
2022-11-24T09:27:40.276Z,10.89
2022-11-24T09:28:40.326Z,10.89
2022-11-24T09:29:40.392Z,10.94
2022-11-24T09:30:40.490Z,10.98
2022-11-24T09:31:40.428Z,10.90
2022-11-24T09:32:40.496Z,10.98
2022-11-24T09:33:40.485Z,11.04
2022-11-24T09:34:40.506Z,10.97
2022-11-24T09:35:40.562Z,10.92
2022-11-24T09:36:40.659Z,11.04
2022-11-24T09:37:40.629Z,11.07
2022-11-24T09:38:40.675Z,10.90
2022-11-24T09:39:40.698Z,10.86
2022-11-24T09:40:40.697Z,10.79
2022-11-24T09:41:40.748Z,10.77
2022-11-24T09:42:40.742Z,10.71
2022-11-24T09:43:40.788Z,10.82
2022-11-24T09:44:40.838Z,10.84
2022-11-24T09:46:07.043Z,10.87
2022-11-24T09:46:40.959Z,11.01
2022-11-24T09:47:40.939Z,11.01
2022-11-24T09:48:41.009Z,11.01
2022-11-24T09:49:40.990Z,11.02
2022-11-24T09:50:41.041Z,11.12
2022-11-24T09:51:41.121Z,11.08
2022-11-24T09:52:41.170Z,11.15
2022-11-24T09:53:41.220Z,11.01
2022-11-24T09:54:41.212Z,11.02
2022-11-24T09:55:41.284Z,11.02
2022-11-24T09:56:41.292Z,10.98
2022-11-24T09:57:41.292Z,10.95
2022-11-24T09:58:41.292Z,11.01
2022-11-24T09:59:41.333Z,10.94
2022-11-24T10:00:41.341Z,10.92
2022-11-24T10:01:41.433Z,10.97
2022-11-24T10:02:41.413Z,11.01
2022-11-24T10:03:41.483Z,10.92
2022-11-24T10:04:41.643Z,10.89
2022-11-24T10:05:41.594Z,10.79
2022-11-24T10:06:41.656Z,10.86
2022-11-24T10:07:41.719Z,11.00
2022-11-24T10:08:41.716Z,10.97
2022-11-24T10:09:41.785Z,10.89
2022-11-24T10:10:41.796Z,10.84
2022-11-24T10:11:41.806Z,10.97
2022-11-24T10:12:41.838Z,11.05
2022-11-24T10:13:41.837Z,11.13
2022-11-24T10:14:41.847Z,11.00
2022-11-24T10:15:41.877Z,11.01
2022-11-24T10:16:41.857Z,11.16
2022-11-24T10:17:41.867Z,11.22
2022-11-24T10:18:41.899Z,11.27
2022-11-24T10:19:42.188Z,11.19
2022-11-24T10:20:41.989Z,11.07
2022-11-24T10:21:41.998Z,11.16
2022-11-24T10:22:42.019Z,11.07
2022-11-24T10:23:41.999Z,11.19
2022-11-24T10:24:41.989Z,11.34
2022-11-24T10:25:42.005Z,11.38
2022-11-24T10:26:42.031Z,11.43
2022-11-24T10:27:42.001Z,11.23
2022-11-24T10:28:42.028Z,11.20
2022-11-24T10:29:41.979Z,11.26
2022-11-24T10:30:42.115Z,11.08
2022-11-24T10:31:42.071Z,11.04
2022-11-24T10:32:42.125Z,11.04
2022-11-24T10:33:42.121Z,10.95
2022-11-24T10:34:42.128Z,10.98
2022-11-24T10:35:42.166Z,11.00
2022-11-24T10:36:42.177Z,10.87
2022-11-24T10:37:42.202Z,10.83
2022-11-24T10:38:42.223Z,10.72
2022-11-24T10:39:42.190Z,10.82
2022-11-24T10:40:56.884Z,10.84
2022-11-24T10:41:42.268Z,10.82
2022-11-24T10:42:42.334Z,10.82
2022-11-24T10:43:42.400Z,10.86
2022-11-24T10:44:42.427Z,10.82
2022-11-24T10:45:42.490Z,10.77
2022-11-24T10:46:42.600Z,10.82
2022-11-24T10:47:42.563Z,10.87
2022-11-24T10:48:42.635Z,10.83
2022-11-24T10:49:42.636Z,10.77
2022-11-24T10:50:42.678Z,10.72
2022-11-24T10:51:42.697Z,10.68
2022-11-24T10:52:42.756Z,10.76
2022-11-24T10:53:42.798Z,10.58
2022-11-24T10:54:42.827Z,10.57
2022-11-24T10:55:42.867Z,10.55
2022-11-24T10:56:42.891Z,10.42
2022-11-24T10:57:42.918Z,10.55
2022-11-24T10:58:42.922Z,10.69
2022-11-24T10:59:42.968Z,10.51
2022-11-24T11:00:43.020Z,10.51
2022-11-24T11:01:43.060Z,10.51
2022-11-24T11:02:43.071Z,10.55
2022-11-24T11:03:43.083Z,10.64
2022-11-24T11:04:43.151Z,10.46
2022-11-24T11:05:43.171Z,10.48
2022-11-24T11:06:43.240Z,10.33
2022-11-24T11:07:43.340Z,10.39
2022-11-24T11:08:43.332Z,10.42
2022-11-24T11:09:43.353Z,10.51
2022-11-24T11:10:43.382Z,10.55
2022-11-24T11:11:43.416Z,10.55
2022-11-24T11:12:45.050Z,10.53
2022-11-24T11:13:43.454Z,10.43
2022-11-24T11:14:43.461Z,10.46
2022-11-24T11:15:43.465Z,10.58
2022-11-24T11:16:43.474Z,10.41
2022-11-24T11:17:43.462Z,10.38
2022-11-24T11:18:43.474Z,10.43
2022-11-24T11:19:51.406Z,10.48
2022-11-24T11:20:43.474Z,10.46
2022-11-24T11:21:43.554Z,10.61
2022-11-24T11:22:43.603Z,10.64
2022-11-24T11:23:43.673Z,10.61
2022-11-24T11:24:43.682Z,10.72
2022-11-24T11:25:43.684Z,10.86
2022-11-24T11:26:43.727Z,10.94
2022-11-24T11:27:43.795Z,11.05
2022-11-24T11:28:43.792Z,11.15
2022-11-24T11:34:02.822Z,11.13
2022-11-24T11:34:43.988Z,11.22
2022-11-24T11:35:43.997Z,11.07
2022-11-24T11:36:44.066Z,10.97
2022-11-24T11:37:44.052Z,11.02
2022-11-24T11:38:44.072Z,10.98
2022-11-24T11:39:48.614Z,10.86
2022-11-24T11:40:44.119Z,10.72
2022-11-24T11:41:44.150Z,10.84
2022-11-24T11:43:02.021Z,10.84
2022-11-24T11:43:44.189Z,11.00
2022-11-24T11:44:44.221Z,10.92
2022-11-24T11:45:44.280Z,10.92
2022-11-24T11:46:44.266Z,10.97
2022-11-24T11:47:44.261Z,10.89
2022-11-24T11:48:44.320Z,10.97
2022-11-24T11:49:44.375Z,10.84
2022-11-24T11:51:14.955Z,10.72
2022-11-24T11:51:44.588Z,10.49
2022-11-24T11:52:44.554Z,10.51
2022-11-24T11:53:44.544Z,10.41
2022-11-24T11:54:44.605Z,10.36
2022-11-24T11:55:49.739Z,10.45
2022-11-24T11:56:44.652Z,10.53
2022-11-24T11:57:44.663Z,10.57
2022-11-24T11:58:44.663Z,10.65
2022-11-24T11:59:44.703Z,10.59
2022-11-24T12:00:44.692Z,10.51
2022-11-24T12:01:44.784Z,10.55
2022-11-24T12:02:49.960Z,10.57
2022-11-24T12:03:44.947Z,10.59
2022-11-24T12:04:44.859Z,10.67
2022-11-24T12:05:44.919Z,10.59
2022-11-24T12:06:44.916Z,10.67
2022-11-24T12:07:44.972Z,10.64
2022-11-24T12:09:18.051Z,10.58
2022-11-24T12:09:44.986Z,10.64
2022-11-24T12:10:44.999Z,10.58
2022-11-24T12:11:45.046Z,10.58
2022-11-24T12:12:45.097Z,10.71
2022-11-24T12:13:45.137Z,10.72
2022-11-24T12:14:45.177Z,10.77
2022-11-24T12:15:45.260Z,10.75
2022-11-24T12:16:45.268Z,10.83
2022-11-24T12:17:45.295Z,10.68
2022-11-24T12:19:00.734Z,10.65
2022-11-24T12:19:45.320Z,10.57
2022-11-24T12:20:45.308Z,10.58
2022-11-24T12:21:45.379Z,10.55
2022-11-24T12:22:45.420Z,10.48
2022-11-24T12:23:45.440Z,10.39
2022-11-24T12:24:45.482Z,10.33
2022-11-24T12:25:45.498Z,10.27
2022-11-24T12:26:45.540Z,10.23
2022-11-24T12:27:45.631Z,10.28
2022-11-24T12:28:45.674Z,10.34
2022-11-24T12:29:45.724Z,10.45
2022-11-24T12:30:45.774Z,10.43
2022-11-24T12:31:45.804Z,10.55
2022-11-24T12:32:45.771Z,10.61
2022-11-24T12:33:50.944Z,10.68
2022-11-24T12:34:45.803Z,10.75
2022-11-24T12:35:45.822Z,10.80
2022-11-24T12:36:45.834Z,10.76
2022-11-24T12:37:45.894Z,10.71
2022-11-24T12:38:45.904Z,10.61
2022-11-24T12:39:45.905Z,10.55
2022-11-24T12:40:47.293Z,10.64
2022-11-24T12:41:46.019Z,10.59
2022-11-24T12:42:46.054Z,10.55
2022-11-24T12:43:46.076Z,10.69
2022-11-24T12:44:46.084Z,10.84
2022-11-24T12:45:46.103Z,10.77
2022-11-24T12:46:46.143Z,10.76
2022-11-24T12:47:46.166Z,10.80
2022-11-24T12:48:46.146Z,10.89
2022-11-24T12:49:46.207Z,10.87
2022-11-24T12:50:46.275Z,10.82
2022-11-24T12:51:46.284Z,10.64
2022-11-24T12:52:46.297Z,10.64
2022-11-24T12:53:46.288Z,10.59
2022-11-24T12:54:46.347Z,10.59
2022-11-24T12:55:46.347Z,10.57
2022-11-24T12:56:46.371Z,10.69
2022-11-24T12:57:46.377Z,10.72
2022-11-24T12:58:46.450Z,10.69
2022-11-24T12:59:46.471Z,10.62
2022-11-24T13:00:46.514Z,10.59
2022-11-24T13:01:46.688Z,10.72
2022-11-24T13:02:46.828Z,10.64
2022-11-24T13:03:46.669Z,10.69
2022-11-24T13:04:46.744Z,10.72
2022-11-24T13:05:46.771Z,10.71
2022-11-24T13:06:49.400Z,10.67
2022-11-24T13:07:46.805Z,10.64
2022-11-24T13:08:46.812Z,10.75
2022-11-24T13:09:46.820Z,10.71
2022-11-24T13:11:02.146Z,10.83
2022-11-24T13:11:46.801Z,10.95
2022-11-24T13:12:46.857Z,10.94
2022-11-24T13:13:46.913Z,10.98
2022-11-24T13:14:46.951Z,11.00
2022-11-24T13:15:48.476Z,10.86
2022-11-24T13:17:06.175Z,10.90